createdAt,value
2019-02-16T00:02:12.077Z,0.40
2019-02-16T00:04:38.660Z,0.40
2019-02-16T00:07:05.354Z,0.30
2019-02-16T00:09:31.941Z,0.40
2019-02-16T00:11:58.568Z,0.40
2019-02-16T00:14:25.200Z,0.40
2019-02-16T00:16:51.783Z,0.30
2019-02-16T00:19:18.415Z,0.30
2019-02-16T00:21:44.996Z,0.20
2019-02-16T00:24:11.719Z,0.30
2019-02-16T00:26:38.306Z,0.20
2019-02-16T00:29:04.941Z,0.20
2019-02-16T00:31:31.531Z,0.20
2019-02-16T00:33:58.117Z,0.10
2019-02-16T00:36:24.753Z,0.10
2019-02-16T00:38:51.342Z,0.10
2019-02-16T00:41:17.972Z,0.20
2019-02-16T00:43:44.551Z,0.20
2019-02-16T00:46:11.180Z,0.20
2019-02-16T00:48:37.765Z,0.20
2019-02-16T00:51:12.941Z,0.00
2019-02-16T00:53:32.710Z,0.10
2019-02-16T00:55:59.351Z,0.10
2019-02-16T00:58:25.983Z,0.10
2019-02-16T01:00:52.565Z,0.00
2019-02-16T01:03:19.199Z,0.00
2019-02-16T01:05:45.794Z,0.00
2019-02-16T01:08:12.433Z,-0.10
2019-02-16T01:10:39.037Z,-0.10
2019-02-16T01:13:05.738Z,-0.20
2019-02-16T01:15:32.350Z,-0.10
2019-02-16T01:17:58.989Z,-0.20
2019-02-16T01:20:25.569Z,-0.10
2019-02-16T01:22:52.261Z,-0.10
2019-02-16T01:25:18.855Z,-0.10
2019-02-16T01:27:45.492Z,-0.20
2019-02-16T01:30:12.136Z,-0.10
2019-02-16T01:32:38.718Z,-0.10
2019-02-16T01:35:05.429Z,-0.30
2019-02-16T01:37:32.014Z,-0.30
2019-02-16T01:39:58.730Z,-0.30
2019-02-16T01:42:25.369Z,-0.30
2019-02-16T01:44:51.954Z,-0.30
2019-02-16T01:47:18.581Z,-0.30
2019-02-16T01:49:45.219Z,-0.30
2019-02-16T01:52:12.126Z,-0.30
2019-02-16T01:54:38.707Z,-0.30
2019-02-16T01:57:05.349Z,-0.30
2019-02-16T01:59:31.938Z,-0.40
2019-02-16T02:01:58.575Z,-0.40
2019-02-16T02:04:25.165Z,-0.40
2019-02-16T02:06:51.855Z,-0.50
2019-02-16T02:09:18.441Z,-0.40
2019-02-16T02:11:45.076Z,-0.50
2019-02-16T02:14:11.768Z,-0.50
2019-02-16T02:16:38.430Z,-0.50
2019-02-16T02:19:05.075Z,-0.50
2019-02-16T02:21:40.626Z,-0.50
2019-02-16T02:24:00.024Z,-0.50
2019-02-16T02:26:26.612Z,-0.50
2019-02-16T02:28:53.338Z,-0.50
2019-02-16T02:31:19.972Z,-0.60
2019-02-16T02:33:46.615Z,-0.50
2019-02-16T02:36:13.199Z,-0.60
2019-02-16T02:38:39.991Z,-0.80
2019-02-16T02:41:06.573Z,-0.80
2019-02-16T02:43:33.161Z,-0.80
2019-02-16T02:45:59.789Z,-0.80
2019-02-16T02:48:26.437Z,-0.80
2019-02-16T02:50:53.072Z,-0.80
2019-02-16T02:53:30.198Z,-0.80
2019-02-16T02:55:48.168Z,-0.80
2019-02-16T02:58:14.960Z,-0.80
2019-02-16T03:00:41.539Z,-0.90
2019-02-16T03:03:08.167Z,-0.80
2019-02-16T03:05:34.746Z,-0.90
2019-02-16T03:08:01.388Z,-0.90
2019-02-16T03:10:27.970Z,-0.90
2019-02-16T03:12:54.588Z,-0.90
2019-02-16T03:15:21.217Z,-1.00
2019-02-16T03:17:47.798Z,-1.00
2019-02-16T03:20:14.429Z,-1.00
2019-02-16T03:22:41.057Z,-1.00
2019-02-16T03:25:07.688Z,-1.00
2019-02-16T03:27:34.266Z,-1.00
2019-02-16T03:30:00.896Z,-1.00
2019-02-16T03:32:27.586Z,-1.00
2019-02-16T03:34:54.275Z,-1.00
2019-02-16T03:37:20.853Z,-1.00
2019-02-16T03:39:47.486Z,-1.00
2019-02-16T03:42:14.062Z,-1.00
2019-02-16T03:44:40.687Z,-1.00
2019-02-16T03:47:07.271Z,-1.00
2019-02-16T03:49:33.889Z,-1.00
2019-02-16T03:52:00.467Z,-1.00
2019-02-16T03:54:27.125Z,-1.00
2019-02-16T03:56:53.754Z,-1.00
2019-02-16T03:59:20.333Z,-1.00
2019-02-16T04:01:47.196Z,-1.00
2019-02-16T04:04:13.972Z,-1.00
2019-02-16T04:06:40.549Z,-1.00
2019-02-16T04:09:07.184Z,-1.00
2019-02-16T04:11:33.814Z,-0.90
2019-02-16T04:14:00.391Z,-0.80
2019-02-16T04:16:27.020Z,-0.90
2019-02-16T04:18:53.660Z,-0.80
2019-02-16T04:21:20.244Z,-0.80
2019-02-16T04:23:46.823Z,-0.80
2019-02-16T04:26:13.451Z,-0.70
2019-02-16T04:28:40.135Z,-0.70
2019-02-16T04:31:06.763Z,-0.60
2019-02-16T04:33:33.383Z,-0.60
2019-02-16T04:35:59.964Z,-0.50
2019-02-16T04:38:26.689Z,-0.50
2019-02-16T04:40:53.271Z,-0.40
2019-02-16T04:43:19.897Z,-0.40
2019-02-16T04:45:46.541Z,-0.30
2019-02-16T04:48:13.296Z,-0.40
2019-02-16T04:50:39.875Z,-0.40
2019-02-16T04:53:06.513Z,-0.40
2019-02-16T04:55:33.093Z,-0.40
2019-02-16T04:57:59.718Z,-0.40
2019-02-16T05:00:26.301Z,-0.40
2019-02-16T05:02:52.924Z,-0.30
2019-02-16T05:05:19.508Z,-0.30
2019-02-16T05:07:46.169Z,-0.30
2019-02-16T05:10:12.790Z,-0.20
2019-02-16T05:12:39.426Z,-0.10
2019-02-16T05:15:06.052Z,0.00
2019-02-16T05:17:32.682Z,0.00
2019-02-16T05:19:59.336Z,0.20
2019-02-16T05:22:25.967Z,0.30
2019-02-16T05:24:52.594Z,0.40
2019-02-16T05:27:19.219Z,0.30
2019-02-16T05:29:45.852Z,0.40
2019-02-16T05:32:12.426Z,0.40
2019-02-16T05:34:39.060Z,0.40
2019-02-16T05:37:05.635Z,0.50
2019-02-16T05:39:32.269Z,0.60
2019-02-16T05:41:58.845Z,0.70
2019-02-16T05:44:25.469Z,0.70
2019-02-16T05:46:52.048Z,0.70
2019-02-16T05:49:18.671Z,0.70
2019-02-16T05:51:45.253Z,0.70
2019-02-16T05:54:11.955Z,0.70
2019-02-16T05:56:38.579Z,0.80
2019-02-16T05:59:05.235Z,0.90
2019-02-16T06:01:31.820Z,0.90
2019-02-16T06:03:58.464Z,0.90
2019-02-16T06:06:25.044Z,0.90
2019-02-16T06:08:51.622Z,1.00
2019-02-16T06:11:18.259Z,1.00
2019-02-16T06:13:44.904Z,1.10
2019-02-16T06:16:11.529Z,1.10
2019-02-16T06:18:38.135Z,1.10
2019-02-16T06:21:04.773Z,1.00
2019-02-16T06:23:31.349Z,1.00
2019-02-16T06:25:57.978Z,1.00
2019-02-16T06:28:24.617Z,1.10
2019-02-16T06:30:51.194Z,1.20
2019-02-16T06:33:17.828Z,1.20
2019-02-16T06:35:44.404Z,1.30
2019-02-16T06:38:10.986Z,1.30
2019-02-16T06:40:37.613Z,1.40
2019-02-16T06:43:04.236Z,1.40
2019-02-16T06:45:30.864Z,1.40
2019-02-16T06:47:57.438Z,1.50
2019-02-16T06:50:24.019Z,1.50
2019-02-16T06:52:50.764Z,1.60
2019-02-16T06:55:17.345Z,1.60
2019-02-16T06:57:43.977Z,1.60
2019-02-16T07:00:10.557Z,1.60
2019-02-16T07:02:37.124Z,1.60
2019-02-16T07:05:03.752Z,1.70
2019-02-16T07:07:30.377Z,1.70
2019-02-16T07:09:57.009Z,1.80
2019-02-16T07:12:23.634Z,2.00
2019-02-16T07:14:50.213Z,2.00
2019-02-16T07:17:16.840Z,2.00
2019-02-16T07:19:43.417Z,2.10
2019-02-16T07:22:09.994Z,2.10
2019-02-16T07:24:36.633Z,2.20
2019-02-16T07:27:03.210Z,2.30
2019-02-16T07:29:29.790Z,2.30
2019-02-16T07:31:56.417Z,2.30
2019-02-16T07:34:22.999Z,2.40
2019-02-16T07:36:49.629Z,2.50
2019-02-16T07:39:16.293Z,2.60
2019-02-16T07:41:43.470Z,2.70
2019-02-16T07:44:10.091Z,2.80
2019-02-16T07:46:36.669Z,2.90
2019-02-16T07:49:03.251Z,3.10
2019-02-16T07:51:29.885Z,3.10
2019-02-16T07:53:56.516Z,3.10
2019-02-16T07:56:23.099Z,3.20
2019-02-16T07:58:49.726Z,3.20
2019-02-16T08:01:16.356Z,3.30
2019-02-16T08:03:42.934Z,3.40
2019-02-16T08:06:09.568Z,3.40
2019-02-16T08:08:36.192Z,3.40
2019-02-16T08:11:02.876Z,3.50
2019-02-16T08:13:29.503Z,3.60
2019-02-16T08:15:56.132Z,3.70
2019-02-16T08:18:22.706Z,3.70
2019-02-16T08:20:49.336Z,3.80
2019-02-16T08:23:15.962Z,3.80
2019-02-16T08:25:42.602Z,3.90
2019-02-16T08:28:09.231Z,4.00
2019-02-16T08:30:35.856Z,4.10
2019-02-16T08:33:02.435Z,4.20
2019-02-16T08:35:29.061Z,4.30
2019-02-16T08:37:55.685Z,4.30
2019-02-16T08:40:22.259Z,4.40
2019-02-16T08:42:48.842Z,4.60
2019-02-16T08:45:15.481Z,4.60
2019-02-16T08:47:42.064Z,4.70
2019-02-16T08:50:08.680Z,4.80
2019-02-16T08:52:35.304Z,5.00
2019-02-16T08:55:01.935Z,5.10
2019-02-16T08:57:28.513Z,5.20
2019-02-16T08:59:55.137Z,5.40
2019-02-16T09:02:21.766Z,5.50
2019-02-16T09:04:48.339Z,5.60
2019-02-16T09:07:14.972Z,5.80
2019-02-16T09:09:41.551Z,6.00
2019-02-16T09:12:08.179Z,6.20
2019-02-16T09:14:34.802Z,6.60
2019-02-16T09:17:01.388Z,6.70
2019-02-16T09:19:28.077Z,6.80
2019-02-16T09:21:54.655Z,7.10
2019-02-16T09:24:21.282Z,7.10
2019-02-16T09:26:47.862Z,7.20
2019-02-16T09:29:14.578Z,7.20
2019-02-16T09:31:41.160Z,7.40
2019-02-16T09:34:07.856Z,7.50
2019-02-16T09:36:34.432Z,7.70
2019-02-16T09:39:01.437Z,7.70
2019-02-16T09:41:28.075Z,7.90
2019-02-16T09:43:54.658Z,8.10
2019-02-16T09:46:21.287Z,8.10
2019-02-16T09:48:47.865Z,8.10
2019-02-16T09:51:14.506Z,8.20
2019-02-16T09:53:41.089Z,8.40
2019-02-16T09:56:07.671Z,8.70
2019-02-16T09:58:34.296Z,8.60
2019-02-16T10:01:00.879Z,9.10
2019-02-16T10:03:27.519Z,9.30
2019-02-16T10:05:54.156Z,9.10
2019-02-16T10:08:20.733Z,9.60
2019-02-16T10:10:47.360Z,9.50
2019-02-16T10:13:13.947Z,9.50
2019-02-16T10:15:40.580Z,9.70
2019-02-16T10:18:07.169Z,9.70
2019-02-16T10:20:33.748Z,9.90
2019-02-16T10:23:00.382Z,10.10
2019-02-16T10:25:26.962Z,10.20
2019-02-16T10:27:53.589Z,10.30
2019-02-16T10:30:20.171Z,10.40
2019-02-16T10:32:46.807Z,10.30
2019-02-16T10:35:13.388Z,10.60
2019-02-16T10:37:40.015Z,10.80
2019-02-16T10:40:06.599Z,10.80
2019-02-16T10:42:33.619Z,10.90
2019-02-16T10:45:00.320Z,11.10
2019-02-16T10:47:26.980Z,11.30
2019-02-16T10:49:53.611Z,11.40
2019-02-16T10:52:20.191Z,11.40
2019-02-16T10:54:46.917Z,11.40
2019-02-16T10:57:13.542Z,11.60
2019-02-16T10:59:40.212Z,11.80
2019-02-16T11:02:06.797Z,11.90
2019-02-16T11:04:38.160Z,12.00
2019-02-16T11:07:01.851Z,12.00
2019-02-16T11:09:28.495Z,12.00
2019-02-16T11:11:55.074Z,12.00
2019-02-16T11:14:21.655Z,12.10
2019-02-16T11:16:48.287Z,12.30
2019-02-16T11:19:14.922Z,12.20
2019-02-16T11:21:41.552Z,12.20
2019-02-16T11:24:08.179Z,12.30
2019-02-16T11:26:34.813Z,12.20
2019-02-16T11:29:01.402Z,12.30
2019-02-16T11:31:27.993Z,12.60
2019-02-16T11:33:54.625Z,12.60
2019-02-16T11:36:21.262Z,12.50
2019-02-16T11:38:47.844Z,12.60
2019-02-16T11:41:19.054Z,12.60
2019-02-16T11:43:42.793Z,12.60
2019-02-16T11:46:09.401Z,12.70
2019-02-16T11:48:36.168Z,12.50
2019-02-16T11:51:02.879Z,12.70
2019-02-16T11:53:29.514Z,12.80
2019-02-16T11:55:56.146Z,12.90
2019-02-16T11:58:22.733Z,12.80
2019-02-16T12:00:49.317Z,13.00
2019-02-16T12:03:15.955Z,13.10
2019-02-16T12:05:42.540Z,13.20
2019-02-16T12:08:09.167Z,13.20
2019-02-16T12:10:35.747Z,13.50
2019-02-16T12:13:02.372Z,13.70
2019-02-16T12:15:28.956Z,13.70
2019-02-16T12:17:55.586Z,13.80
2019-02-16T12:20:22.172Z,13.70
2019-02-16T12:22:48.803Z,13.80
2019-02-16T12:25:15.384Z,13.90
2019-02-16T12:27:42.015Z,14.00
2019-02-16T12:30:08.601Z,14.10
2019-02-16T12:32:35.227Z,14.20
2019-02-16T12:35:01.811Z,14.30
2019-02-16T12:37:28.446Z,14.30
2019-02-16T12:39:55.028Z,14.20
2019-02-16T12:42:21.675Z,14.40
2019-02-16T12:44:48.296Z,14.40
2019-02-16T12:47:14.880Z,14.50
2019-02-16T12:49:41.505Z,14.40
2019-02-16T12:52:08.089Z,14.60
2019-02-16T12:54:34.718Z,14.70
2019-02-16T12:57:01.301Z,14.70
2019-02-16T12:59:27.933Z,14.80
2019-02-16T13:01:54.516Z,14.80
2019-02-16T13:04:21.095Z,14.80
2019-02-16T13:06:47.739Z,14.90
2019-02-16T13:09:14.386Z,14.80
2019-02-16T13:11:40.962Z,14.80
2019-02-16T13:14:07.551Z,15.10
2019-02-16T13:16:34.177Z,15.10
2019-02-16T13:19:00.763Z,15.10
2019-02-16T13:21:27.473Z,15.20
2019-02-16T13:23:54.132Z,15.30
2019-02-16T13:26:20.754Z,15.30
2019-02-16T13:28:47.343Z,15.40
2019-02-16T13:31:14.273Z,15.40
2019-02-16T13:33:40.928Z,15.40
2019-02-16T13:36:07.758Z,15.50
2019-02-16T13:38:34.426Z,15.50
2019-02-16T13:41:01.006Z,15.50
2019-02-16T13:43:27.636Z,15.50
2019-02-16T13:45:54.269Z,15.50
2019-02-16T13:48:20.904Z,15.60
2019-02-16T13:50:47.526Z,15.70
2019-02-16T13:53:14.171Z,15.60
2019-02-16T13:55:40.757Z,15.60
2019-02-16T13:58:07.339Z,15.60
2019-02-16T14:00:33.973Z,15.80
2019-02-16T14:03:00.610Z,15.70
2019-02-16T14:05:27.356Z,15.70
2019-02-16T14:07:53.943Z,15.70
2019-02-16T14:10:20.517Z,15.70
2019-02-16T14:12:47.151Z,15.70
2019-02-16T14:15:13.784Z,15.60
2019-02-16T14:17:40.369Z,15.70
2019-02-16T14:20:07.080Z,15.80
2019-02-16T14:22:33.663Z,15.90
2019-02-16T14:25:00.356Z,16.00
2019-02-16T14:27:26.938Z,16.00
2019-02-16T14:29:53.567Z,16.00
2019-02-16T14:32:20.147Z,16.10
2019-02-16T14:34:46.792Z,16.10
2019-02-16T14:37:13.369Z,16.10
2019-02-16T14:39:39.950Z,16.10
2019-02-16T14:42:06.579Z,15.90
2019-02-16T14:44:33.254Z,15.70
2019-02-16T14:46:59.889Z,15.70
2019-02-16T14:49:26.466Z,15.60
2019-02-16T14:51:53.097Z,15.50
2019-02-16T14:54:19.682Z,15.50
2019-02-16T14:56:46.308Z,15.50
2019-02-16T14:59:12.940Z,15.50
2019-02-16T15:01:39.522Z,15.40
2019-02-16T15:04:06.260Z,15.80
2019-02-16T15:06:32.899Z,15.70
2019-02-16T15:08:59.534Z,17.40
2019-02-16T15:11:26.116Z,18.90
2019-02-16T15:13:52.742Z,19.70
2019-02-16T15:16:19.375Z,20.20
2019-02-16T15:18:46.007Z,20.80
2019-02-16T15:21:12.718Z,20.40
2019-02-16T15:23:39.298Z,19.30
2019-02-16T15:26:05.932Z,18.40
2019-02-16T15:28:32.509Z,18.60
2019-02-16T15:30:59.141Z,19.60
2019-02-16T15:33:25.717Z,19.30
2019-02-16T15:35:52.366Z,17.70
2019-02-16T15:38:18.953Z,16.70
2019-02-16T15:40:45.533Z,16.20
2019-02-16T15:43:12.176Z,15.70
2019-02-16T15:45:38.829Z,15.30
2019-02-16T15:48:05.512Z,15.00
2019-02-16T15:50:32.095Z,14.60
2019-02-16T15:52:58.740Z,14.30
2019-02-16T15:55:25.319Z,14.10
2019-02-16T15:57:51.897Z,13.80
2019-02-16T16:00:18.551Z,13.60
2019-02-16T16:02:45.208Z,13.50
2019-02-16T16:05:11.912Z,13.10
2019-02-16T16:07:38.487Z,12.90
2019-02-16T16:10:05.125Z,12.70
2019-02-16T16:12:31.702Z,12.60
2019-02-16T16:14:58.330Z,12.50
2019-02-16T16:17:24.913Z,12.50
2019-02-16T16:19:51.549Z,12.40
2019-02-16T16:22:18.131Z,12.30
2019-02-16T16:24:44.763Z,12.20
2019-02-16T16:27:11.394Z,12.00
2019-02-16T16:29:37.965Z,12.00
2019-02-16T16:32:04.600Z,11.80
2019-02-16T16:34:31.243Z,11.60
2019-02-16T16:36:57.832Z,11.40
2019-02-16T16:39:24.415Z,11.20
2019-02-16T16:41:51.048Z,11.10
2019-02-16T16:44:17.627Z,10.90
2019-02-16T16:46:44.265Z,10.70
2019-02-16T16:49:10.846Z,10.60
2019-02-16T16:51:37.484Z,10.50
2019-02-16T16:54:04.064Z,10.30
2019-02-16T16:56:30.696Z,10.10
2019-02-16T16:58:57.328Z,9.80
2019-02-16T17:01:23.953Z,9.60
2019-02-16T17:03:50.577Z,9.40
2019-02-16T17:06:17.212Z,9.20
2019-02-16T17:08:43.897Z,9.00
2019-02-16T17:11:10.546Z,9.10
2019-02-16T17:13:37.180Z,9.10
2019-02-16T17:16:03.811Z,9.00
2019-02-16T17:18:30.394Z,8.90
2019-02-16T17:20:57.031Z,8.80
2019-02-16T17:23:23.610Z,8.60
2019-02-16T17:25:50.241Z,8.50
2019-02-16T17:28:16.822Z,8.40
2019-02-16T17:30:43.445Z,8.30
2019-02-16T17:33:10.025Z,8.20
2019-02-16T17:35:36.663Z,8.00
2019-02-16T17:38:03.249Z,8.00
2019-02-16T17:40:29.825Z,8.10
2019-02-16T17:42:56.460Z,8.00
2019-02-16T17:45:23.039Z,8.00
2019-02-16T17:47:49.684Z,7.90
2019-02-16T17:50:16.268Z,7.90
2019-02-16T17:52:42.900Z,7.80
2019-02-16T17:55:09.600Z,7.90
2019-02-16T17:57:36.612Z,8.00
2019-02-16T18:00:03.243Z,7.90
2019-02-16T18:02:29.869Z,7.80
2019-02-16T18:04:56.450Z,7.80
2019-02-16T18:07:23.078Z,7.70
2019-02-16T18:09:49.712Z,7.60
2019-02-16T18:12:16.294Z,7.50
2019-02-16T18:14:42.927Z,7.30
2019-02-16T18:17:09.525Z,7.00
2019-02-16T18:19:36.148Z,7.00
2019-02-16T18:22:02.728Z,6.90
2019-02-16T18:24:29.358Z,6.70
2019-02-16T18:26:56.878Z,6.60
2019-02-16T18:29:23.770Z,6.60
2019-02-16T18:31:50.343Z,6.50
2019-02-16T18:34:16.934Z,6.50
2019-02-16T18:36:43.553Z,6.40
2019-02-16T18:39:24.957Z,6.40
2019-02-16T18:41:51.651Z,6.30
2019-02-16T18:44:18.232Z,6.20
2019-02-16T18:46:44.859Z,6.20
2019-02-16T18:49:11.455Z,6.10
2019-02-16T18:51:38.164Z,6.10
2019-02-16T18:54:04.762Z,6.10
2019-02-16T18:56:31.407Z,5.90
2019-02-16T18:58:58.040Z,5.80
2019-02-16T19:01:24.630Z,5.70
2019-02-16T19:03:51.320Z,5.70
2019-02-16T19:06:17.944Z,5.60
2019-02-16T19:08:44.591Z,5.50
2019-02-16T19:11:11.239Z,5.50
2019-02-16T19:13:37.886Z,5.40
2019-02-16T19:16:04.507Z,5.20
2019-02-16T19:18:31.141Z,5.00
2019-02-16T19:20:57.761Z,5.10
2019-02-16T19:23:24.390Z,5.00
2019-02-16T19:25:50.967Z,5.00
2019-02-16T19:28:17.607Z,4.80
2019-02-16T19:30:44.186Z,4.80
2019-02-16T19:33:10.795Z,4.80
2019-02-16T19:35:37.414Z,4.60
2019-02-16T19:38:03.994Z,4.40
2019-02-16T19:40:30.627Z,4.40
2019-02-16T19:42:57.204Z,4.40
2019-02-16T19:45:23.876Z,4.30
2019-02-16T19:47:50.454Z,4.30
2019-02-16T19:50:17.028Z,4.30
2019-02-16T19:52:43.655Z,4.20
2019-02-16T19:55:10.231Z,4.10
2019-02-16T19:57:36.863Z,4.10
2019-02-16T20:00:03.447Z,4.00
2019-02-16T20:02:30.072Z,3.90
2019-02-16T20:04:56.646Z,3.80
2019-02-16T20:07:23.275Z,3.90
2019-02-16T20:09:49.859Z,3.90
2019-02-16T20:12:16.437Z,3.80
2019-02-16T20:14:43.067Z,3.80
2019-02-16T20:17:09.644Z,3.70
2019-02-16T20:19:36.298Z,3.70
2019-02-16T20:22:02.879Z,3.60
2019-02-16T20:24:29.507Z,3.60
2019-02-16T20:26:56.090Z,3.50
2019-02-16T20:29:22.722Z,3.50
2019-02-16T20:31:49.351Z,3.40
2019-02-16T20:34:15.926Z,3.50
2019-02-16T20:36:42.564Z,3.50
2019-02-16T20:39:09.137Z,3.40
2019-02-16T20:41:35.765Z,3.30
2019-02-16T20:44:02.347Z,3.30
2019-02-16T20:46:29.012Z,3.30
2019-02-16T20:48:55.643Z,3.10
2019-02-16T20:51:22.287Z,3.00
2019-02-16T20:53:49.043Z,3.10
2019-02-16T20:56:15.720Z,3.00
2019-02-16T20:58:42.346Z,3.10
2019-02-16T21:01:08.926Z,3.00
2019-02-16T21:03:35.559Z,3.00
2019-02-16T21:06:02.144Z,3.00
2019-02-16T21:08:28.722Z,3.00
2019-02-16T21:10:55.349Z,2.90
2019-02-16T21:13:21.932Z,2.90
2019-02-16T21:15:48.568Z,2.80
2019-02-16T21:18:15.185Z,2.70
2019-02-16T21:20:41.817Z,2.80
2019-02-16T21:23:08.398Z,2.80
2019-02-16T21:25:35.021Z,2.80
2019-02-16T21:28:01.607Z,2.80
2019-02-16T21:30:28.176Z,2.80
2019-02-16T21:32:54.802Z,2.80
2019-02-16T21:35:21.440Z,2.80
2019-02-16T21:37:48.025Z,2.80
2019-02-16T21:40:14.600Z,2.90
2019-02-16T21:42:41.224Z,2.90
2019-02-16T21:45:07.818Z,3.00
2019-02-16T21:47:34.442Z,3.00
2019-02-16T21:50:01.499Z,3.00
2019-02-16T21:52:28.242Z,3.00
2019-02-16T21:54:54.815Z,3.00
2019-02-16T21:57:21.636Z,3.00
2019-02-16T21:59:48.210Z,3.10
2019-02-16T22:02:14.834Z,3.10
2019-02-16T22:04:41.469Z,3.10
2019-02-16T22:07:08.047Z,3.10
2019-02-16T22:09:34.621Z,3.00
2019-02-16T22:12:01.351Z,3.00
2019-02-16T22:14:27.932Z,2.90
2019-02-16T22:16:54.508Z,2.90
2019-02-16T22:19:21.127Z,2.80
2019-02-16T22:21:47.704Z,2.80
2019-02-16T22:24:14.336Z,2.80
2019-02-16T22:26:40.915Z,2.80
2019-02-16T22:29:07.539Z,2.70
2019-02-16T22:31:34.163Z,2.60
2019-02-16T22:34:00.883Z,2.60
2019-02-16T22:36:27.506Z,2.50
2019-02-16T22:38:54.080Z,2.40
2019-02-16T22:41:20.707Z,2.30
2019-02-16T22:43:47.289Z,2.30
2019-02-16T22:46:13.923Z,2.20
2019-02-16T22:48:40.504Z,2.30
2019-02-16T22:51:07.127Z,2.20
2019-02-16T22:53:33.785Z,2.20
2019-02-16T22:56:00.418Z,2.20
2019-02-16T22:58:29.196Z,2.10
2019-02-16T23:00:55.347Z,2.10
2019-02-16T23:03:21.924Z,2.00
2019-02-16T23:05:48.553Z,2.00
2019-02-16T23:08:15.128Z,1.90
2019-02-16T23:10:41.757Z,1.80
2019-02-16T23:13:08.387Z,1.80
2019-02-16T23:15:34.959Z,1.80
2019-02-16T23:18:01.585Z,1.80
2019-02-16T23:20:28.236Z,1.80
2019-02-16T23:22:54.880Z,1.80
2019-02-16T23:25:21.459Z,1.70
2019-02-16T23:27:48.037Z,1.60
2019-02-16T23:30:14.672Z,1.60
2019-02-16T23:32:41.244Z,1.50
2019-02-16T23:35:07.822Z,1.50
2019-02-16T23:37:34.451Z,1.40
2019-02-16T23:40:01.229Z,1.50
2019-02-16T23:42:27.813Z,1.50
2019-02-16T23:44:54.444Z,1.40
2019-02-16T23:47:21.079Z,1.50
2019-02-16T23:49:47.710Z,1.40
2019-02-16T23:52:14.294Z,1.40
2019-02-16T23:54:40.870Z,1.30
2019-02-16T23:57:07.496Z,1.30
2019-02-16T23:59:34.121Z,1.30
